Terminal Aerodrome Forecast
Issued by NWS

Home | Current Version | Previous Version | Text Only | Print | Product List | Glossary On
Versions: 1 2 3 4 5 6 7 8 9 10 11 12 13 14 15 16 17 18 19 20 21 22 23 24 25 26 27 28 29 30 31 32 33 34
000
FTUS46 KOTX 220851 AAA
TAFPUW
TAF AMD
KPUW 220851Z 2209/2306 17011KT P6SM BKN025
     FM221000 23006KT P6SM SCT015 BKN070
     FM221800 22009KT P6SM VCSH BKN025 BKN040
     FM230200 24006KT P6SM FEW035 SCT120=

USA.gov is the U.S. government's official web portal to all federal, state and local government web resources and services.